createdAt,value
2016-06-10T09:07:58.886Z,22.79
2016-06-10T09:08:58.889Z,22.91
2016-06-10T09:09:58.908Z,22.86
2016-06-10T09:10:58.770Z,22.76
2016-06-10T09:11:59.367Z,22.83
2016-06-10T09:12:58.964Z,22.65
2016-06-10T09:13:58.968Z,22.61
2016-06-10T09:14:59.064Z,22.47
2016-06-10T09:15:58.848Z,22.42
2016-06-10T09:16:59.133Z,22.33
2016-06-10T09:17:59.026Z,22.25
2016-06-10T09:18:59.045Z,22.15
2016-06-10T09:19:59.236Z,22.07
2016-06-10T09:21:13.160Z,22.02
2016-06-10T09:21:59.085Z,21.98
2016-06-10T09:22:59.088Z,21.92
2016-06-10T09:23:59.311Z,21.83
2016-06-10T09:24:59.111Z,21.92
2016-06-10T09:25:58.989Z,21.99
2016-06-10T09:26:59.539Z,22.09
2016-06-10T09:27:59.479Z,22.15
2016-06-10T09:28:59.184Z,22.22
2016-06-10T09:29:59.032Z,22.37
2016-06-10T09:30:59.207Z,22.54
2016-06-10T09:31:59.210Z,22.55
2016-06-10T09:32:59.230Z,22.64
2016-06-10T09:33:59.247Z,22.79
2016-06-10T09:34:59.266Z,22.82
2016-06-10T09:35:59.285Z,23.02
2016-06-10T09:36:59.522Z,23.02
2016-06-10T09:37:59.525Z,22.97
2016-06-10T09:38:59.309Z,23.09
2016-06-10T09:39:59.548Z,22.97
2016-06-10T09:40:59.347Z,23.02
2016-06-10T09:41:59.366Z,22.98
2016-06-10T09:42:59.807Z,22.86
2016-06-10T09:43:59.388Z,22.9
2016-06-10T09:44:59.391Z,22.85
2016-06-10T09:45:59.425Z,22.83
2016-06-10T09:46:59.428Z,22.91
2016-06-10T09:47:59.290Z,22.95
2016-06-10T09:48:59.466Z,22.9
2016-06-10T09:49:59.329Z,22.98
2016-06-10T09:50:59.487Z,23.01
2016-06-10T09:51:59.506Z,23.05
2016-06-10T09:52:59.525Z,23.1
2016-06-10T09:53:59.544Z,23.12
2016-06-10T09:54:59.562Z,23.12
2016-06-10T09:55:59.565Z,23.17
2016-06-10T09:57:00.506Z,23.12
2016-06-10T09:57:59.603Z,23.05
2016-06-10T09:58:59.606Z,23
2016-06-10T09:59:59.468Z,22.9
2016-06-10T10:00:59.627Z,22.83
2016-06-10T10:01:59.646Z,22.72
2016-06-10T10:02:59.727Z,22.6
2016-06-10T10:03:59.684Z,22.49
2016-06-10T10:04:59.687Z,22.27
2016-06-10T10:05:59.721Z,22.15
2016-06-10T10:07:59.759Z,22.17
2016-06-10T10:08:59.777Z,22.15
2016-06-10T10:09:59.780Z,22.12
2016-06-10T10:10:59.783Z,22.24
2016-06-10T10:11:59.802Z,22.24
2016-06-10T10:12:59.820Z,22.25
2016-06-10T10:13:59.823Z,22.37
2016-06-10T10:14:59.842Z,22.33
2016-06-10T10:16:00.065Z,22.35
2016-06-10T10:16:59.957Z,22.33
2016-06-10T10:17:59.867Z,22.33
2016-06-10T10:18:59.760Z,22.33
2016-06-10T10:19:59.905Z,22.35
2016-06-10T10:20:59.767Z,22.45
2016-06-10T10:21:59.941Z,22.54
2016-06-10T10:22:59.976Z,22.64
2016-06-10T10:23:59.964Z,22.75
2016-06-10T10:24:59.998Z,22.86
2016-06-10T10:25:59.985Z,23.12
2016-06-10T10:27:00.598Z,23.13
2016-06-10T10:28:01.679Z,23.2
2016-06-10T10:29:00.026Z,23.23
2016-06-10T10:30:00.044Z,23.27
2016-06-10T10:31:00.079Z,23.22
2016-06-10T10:32:00.082Z,23.2
2016-06-10T10:33:00.100Z,23.23
2016-06-10T10:34:00.104Z,23.25
2016-06-10T10:35:00.326Z,23.23
2016-06-10T10:36:00.141Z,23.19
2016-06-10T10:37:00.160Z,23.27
2016-06-10T10:37:59.710Z,23.38
2016-06-10T10:39:00.385Z,23.42
2016-06-10T10:40:00.200Z,23.54
2016-06-10T10:41:00.236Z,23.69
2016-06-10T10:42:00.098Z,23.61
2016-06-10T10:43:00.476Z,23.69
2016-06-10T10:44:00.244Z,23.79
2016-06-10T10:45:00.279Z,23.83
2016-06-10T10:46:00.157Z,23.76
2016-06-10T10:47:00.299Z,23.79
2016-06-10T10:48:00.302Z,23.76
2016-06-10T10:49:00.321Z,23.79
2016-06-10T10:50:00.341Z,23.85
2016-06-10T10:51:00.359Z,23.93
2016-06-10T10:52:00.362Z,23.98
2016-06-10T10:53:00.365Z,23.9
2016-06-10T10:54:00.400Z,23.95
2016-06-10T10:55:00.418Z,23.95
2016-06-10T10:56:00.438Z,24
2016-06-10T10:57:00.550Z,24.09
2016-06-10T10:58:01.084Z,24.08
2016-06-10T10:59:00.666Z,24.09
2016-06-10T11:00:00.433Z,24.18
2016-06-10T11:01:00.717Z,24.24
2016-06-10T11:02:00.595Z,24.22
2016-06-10T11:03:00.724Z,24.32
2016-06-10T11:04:00.837Z,24.32
2016-06-10T11:05:00.574Z,24.2
2016-06-10T11:06:00.577Z,24.24
2016-06-10T11:07:00.596Z,24.24
2016-06-10T11:08:00.614Z,24.24
2016-06-10T11:09:00.477Z,24.18
2016-06-10T11:10:00.652Z,24.25
2016-06-10T11:11:00.859Z,24.32
2016-06-10T11:12:00.673Z,24.3
2016-06-10T11:13:01.193Z,24.35
2016-06-10T11:14:00.711Z,24.45
2016-06-10T11:15:01.604Z,24.47
2016-06-10T11:16:01.233Z,24.57
2016-06-10T11:17:00.752Z,24.58
2016-06-10T11:18:00.958Z,24.6
2016-06-10T11:19:00.773Z,24.57
2016-06-10T11:20:00.792Z,24.64
2016-06-10T11:21:01.062Z,24.78
2016-06-10T11:22:00.815Z,24.81
2016-06-10T11:23:01.364Z,24.73
2016-06-10T11:24:01.618Z,24.77
2016-06-10T11:25:01.385Z,24.81
2016-06-10T11:26:00.889Z,24.87
2016-06-10T11:27:01.548Z,24.91
2016-06-10T11:28:01.786Z,24.88
2016-06-10T11:29:01.976Z,24.93
2016-06-10T11:30:00.947Z,24.93
2016-06-10T11:31:00.967Z,24.99
2016-06-10T11:32:00.829Z,24.95
2016-06-10T11:33:00.988Z,24.9
2016-06-10T11:34:00.991Z,24.96
2016-06-10T11:35:32.307Z,24.96
2016-06-10T11:36:15.372Z,24.93
2016-06-10T11:37:01.938Z,24.91
2016-06-10T11:38:01.253Z,24.9
2016-06-10T11:39:01.085Z,24.87
2016-06-10T11:40:01.292Z,24.91
2016-06-10T11:41:02.106Z,25.06
2016-06-10T11:42:03.000Z,25.08
2016-06-10T11:43:01.754Z,25.13
2016-06-10T11:44:01.584Z,25.2
2016-06-10T11:45:02.157Z,25.21
2016-06-10T11:46:01.512Z,25.33
2016-06-10T11:47:01.336Z,25.3
2016-06-10T11:48:01.956Z,25.33
2016-06-10T11:49:01.426Z,25.46
2016-06-10T11:50:01.475Z,25.46
2016-06-10T11:51:01.961Z,25.54
2016-06-10T11:52:02.213Z,25.58
2016-06-10T11:53:01.558Z,25.55
2016-06-10T11:54:01.618Z,25.64
2016-06-10T11:55:01.611Z,25.67
2016-06-10T11:56:01.619Z,25.73
2016-06-10T11:57:02.253Z,25.77
2016-06-10T11:58:02.245Z,25.69
2016-06-10T11:59:02.189Z,25.76
2016-06-10T12:00:02.225Z,25.72
2016-06-10T12:01:01.730Z,25.69
2016-06-10T12:02:01.736Z,25.77
2016-06-10T12:03:01.772Z,25.85
2016-06-10T12:04:01.776Z,25.75
2016-06-10T12:05:01.810Z,25.7
2016-06-10T12:06:01.924Z,25.7
2016-06-10T12:07:01.880Z,25.77
2016-06-10T12:08:01.946Z,25.73
2016-06-10T12:09:02.152Z,25.62
2016-06-10T12:10:02.671Z,25.69
2016-06-10T12:11:02.159Z,25.58
2016-06-10T12:12:02.038Z,25.46
2016-06-10T12:13:02.744Z,25.43
2016-06-10T12:14:02.170Z,25.35
2016-06-10T12:15:01.954Z,25.35
2016-06-10T12:16:02.114Z,25.33
2016-06-10T12:17:02.085Z,25.32
2016-06-10T12:18:02.026Z,25.25
2016-06-10T12:19:02.045Z,25.3
2016-06-10T12:20:02.251Z,25.35
2016-06-10T12:21:02.269Z,25.32
2016-06-10T12:22:02.304Z,25.35
2016-06-10T12:23:02.119Z,25.39
2016-06-10T12:24:02.139Z,25.42
2016-06-10T12:25:02.126Z,25.45
2016-06-10T12:26:02.144Z,25.46
2016-06-10T12:27:02.147Z,25.57
2016-06-10T12:28:02.682Z,25.54
2016-06-10T12:29:02.059Z,25.58
2016-06-10T12:30:02.204Z,25.54
2016-06-10T12:31:02.222Z,25.55
2016-06-10T12:32:02.240Z,25.69
2016-06-10T12:33:02.493Z,25.69
2016-06-10T12:34:02.263Z,25.67
2016-06-10T12:35:02.500Z,25.75
2016-06-10T12:36:02.300Z,25.69
2016-06-10T12:37:02.693Z,25.67
2016-06-10T12:38:02.321Z,25.75
2016-06-10T12:39:02.341Z,25.79
2016-06-10T12:40:02.406Z,25.88
2016-06-10T12:41:02.612Z,25.85
2016-06-10T12:42:02.662Z,25.88
2016-06-10T12:43:02.478Z,25.88
2016-06-10T12:44:02.637Z,25.97
2016-06-10T12:45:02.468Z,25.95
2016-06-10T12:46:02.315Z,25.94
2016-06-10T12:47:02.474Z,25.99
2016-06-10T12:48:02.681Z,26.01
2016-06-10T12:49:02.699Z,26.02
2016-06-10T12:50:02.515Z,25.99
2016-06-10T12:51:16.628Z,26.06
2016-06-10T12:52:02.583Z,25.92
2016-06-10T12:53:02.806Z,25.99
2016-06-10T12:54:02.605Z,26.01
2016-06-10T12:55:02.623Z,26.09
2016-06-10T12:56:02.658Z,26.05
2016-06-10T12:57:02.818Z,26.12
2016-06-10T12:58:03.524Z,26.06
2016-06-10T12:59:02.965Z,26.07
2016-06-10T13:00:02.671Z,26.12
2016-06-10T13:01:02.766Z,26.18
2016-06-10T13:02:03.942Z,26.26
2016-06-10T13:03:02.836Z,26.2
2016-06-10T13:04:02.745Z,26.21
2016-06-10T13:05:02.748Z,26.23
2016-06-10T13:06:02.782Z,26.17
2016-06-10T13:07:02.786Z,26.29
2016-06-10T13:08:02.898Z,26.17
2016-06-10T13:09:02.839Z,26.29
2016-06-10T13:10:02.841Z,26.23
2016-06-10T13:11:02.876Z,26.29
2016-06-10T13:12:02.926Z,26.33
2016-06-10T13:13:04.085Z,26.36
2016-06-10T13:14:03.573Z,26.32
2016-06-10T13:15:03.154Z,26.3
2016-06-10T13:16:02.985Z,26.33
2016-06-10T13:17:03.270Z,26.43
2016-06-10T13:18:03.054Z,26.4
2016-06-10T13:19:02.979Z,26.39
2016-06-10T13:20:02.997Z,26.3
2016-06-10T13:21:03.625Z,26.28
2016-06-10T13:22:03.036Z,26.29
2016-06-10T13:23:02.804Z,26.29
2016-06-10T13:24:03.057Z,26.37
2016-06-10T13:25:03.107Z,26.43
2016-06-10T13:26:03.126Z,26.51
2016-06-10T13:27:03.144Z,26.57
2016-06-10T13:28:03.679Z,26.51
2016-06-10T13:29:03.166Z,26.55
2016-06-10T13:30:03.169Z,26.65
2016-06-10T13:31:03.391Z,26.67
2016-06-10T13:32:03.362Z,26.75
2016-06-10T13:33:03.320Z,26.7
2016-06-10T13:34:03.244Z,26.72
2016-06-10T13:35:03.247Z,26.75
2016-06-10T13:36:03.359Z,26.73
2016-06-10T13:37:03.394Z,26.66
2016-06-10T13:38:03.288Z,26.73
2016-06-10T13:39:03.619Z,26.67
2016-06-10T13:40:03.325Z,26.6
2016-06-10T13:41:03.406Z,26.52
2016-06-10T13:42:03.159Z,26.51
2016-06-10T13:43:03.943Z,26.54
2016-06-10T13:44:04.462Z,26.55
2016-06-10T13:45:03.402Z,26.57
2016-06-10T13:46:03.421Z,26.51
2016-06-10T13:47:03.441Z,26.5
2016-06-10T13:48:03.458Z,26.63
2016-06-10T13:49:03.961Z,26.63
2016-06-10T13:50:03.074Z,26.6
2016-06-10T13:52:03.548Z,26.7
2016-06-10T13:53:03.537Z,26.63
2016-06-10T13:54:03.712Z,26.7
2016-06-10T13:55:03.590Z,26.69
2016-06-10T13:56:03.608Z,26.65
2016-06-10T13:57:03.924Z,26.62
2016-06-10T13:58:03.646Z,26.57
2016-06-10T13:59:04.274Z,26.65
2016-06-10T14:01:03.765Z,26.75
2016-06-10T14:02:03.690Z,26.77
2016-06-10T14:03:03.802Z,26.85
2016-06-10T14:04:03.930Z,26.87
2016-06-10T14:05:04.152Z,26.94
2016-06-10T14:06:03.764Z,26.87
2016-06-10T14:07:03.814Z,26.84
2016-06-10T14:08:03.833Z,26.87
2016-06-10T14:09:04.008Z,26.97
2016-06-10T14:10:03.823Z,26.92
2016-06-10T14:11:03.826Z,26.92
2016-06-10T14:12:03.892Z,26.97
2016-06-10T14:13:04.379Z,26.92
2016-06-10T14:14:04.116Z,26.97
2016-06-10T14:15:03.963Z,26.95
2016-06-10T14:16:04.013Z,27
2016-06-10T14:17:18.282Z,27.03
2016-06-10T14:18:04.285Z,27.09
2016-06-10T14:19:04.006Z,27.04
2016-06-10T14:20:04.182Z,27.03
2016-06-10T14:21:04.029Z,27.09
2016-06-10T14:22:04.016Z,27.03
2016-06-10T14:23:04.035Z,27.04
2016-06-10T14:24:04.054Z,27.07
2016-06-10T14:25:04.072Z,27.03
2016-06-10T14:26:04.091Z,26.94
2016-06-10T14:27:04.156Z,26.94
2016-06-10T14:28:04.003Z,26.94
2016-06-10T14:29:04.162Z,26.95
2016-06-10T14:30:04.369Z,26.95
2016-06-10T14:31:04.185Z,26.95
2016-06-10T14:32:04.547Z,26.92
2016-06-10T14:33:04.222Z,26.92
2016-06-10T14:34:04.225Z,26.91
2016-06-10T14:35:04.510Z,26.95
2016-06-10T14:36:04.263Z,26.91
2016-06-10T14:37:04.297Z,26.85
2016-06-10T14:38:04.347Z,26.92
2016-06-10T14:39:04.303Z,26.92
2016-06-10T14:40:04.400Z,26.97
2016-06-10T14:41:04.357Z,27.03
2016-06-10T14:42:04.578Z,26.94
2016-06-10T14:43:04.316Z,26.94
2016-06-10T14:44:05.694Z,26.89
2016-06-10T14:45:04.416Z,26.95
2016-06-10T14:46:18.559Z,27.02
2016-06-10T14:47:04.436Z,26.92
2016-06-10T14:48:04.518Z,26.91
2016-06-10T14:49:04.709Z,26.94
2016-06-10T14:50:04.509Z,26.82
2016-06-10T14:51:04.746Z,26.94
2016-06-10T14:52:04.577Z,26.94
2016-06-10T14:53:04.861Z,26.89
2016-06-10T14:54:04.614Z,27
2016-06-10T14:55:04.587Z,26.95
2016-06-10T14:56:04.606Z,26.97
2016-06-10T14:57:04.687Z,26.92
2016-06-10T14:58:04.564Z,26.91
2016-06-10T14:59:05.177Z,26.97
2016-06-10T15:00:18.743Z,26.94
2016-06-10T15:02:04.733Z,26.95
2016-06-10T15:03:04.955Z,26.99
2016-06-10T15:04:04.739Z,26.91
2016-06-10T15:05:04.759Z,26.88
2016-06-10T15:06:04.776Z,26.92
2016-06-10T15:07:04.811Z,26.91
2016-06-10T15:08:04.361Z,26.88
2016-06-10T15:09:05.051Z,26.84
2016-06-10T15:10:04.851Z,26.73
2016-06-10T15:11:05.682Z,26.82
2016-06-10T15:12:05.077Z,26.7
2016-06-10T15:13:05.142Z,26.7
2016-06-10T15:14:04.911Z,26.77
2016-06-10T15:15:04.914Z,26.73
2016-06-10T15:16:04.932Z,26.76
2016-06-10T15:17:05.154Z,26.77
2016-06-10T15:19:04.973Z,26.82
2016-06-10T15:20:04.991Z,26.76
2016-06-10T15:21:05.261Z,26.67
2016-06-10T15:22:05.044Z,26.65
2016-06-10T15:23:05.032Z,26.58
2016-06-10T15:24:05.081Z,26.54
2016-06-10T15:25:05.069Z,26.54
2016-06-10T15:26:05.167Z,26.57
2016-06-10T15:27:05.123Z,26.52
2016-06-10T15:28:05.126Z,26.55
2016-06-10T15:29:05.160Z,26.48
2016-06-10T15:30:05.179Z,26.45
2016-06-10T15:31:05.228Z,26.54
2016-06-10T15:32:05.591Z,26.52
2016-06-10T15:33:05.251Z,26.51
2016-06-10T15:34:05.284Z,26.48
2016-06-10T15:35:05.226Z,26.5
2016-06-10T15:36:05.259Z,26.35
2016-06-10T15:37:05.496Z,26.44
2016-06-10T15:38:05.140Z,26.43
2016-06-10T15:39:05.503Z,26.36
2016-06-10T15:40:05.318Z,26.29
2016-06-10T15:41:05.369Z,26.28
2016-06-10T15:42:05.591Z,26.33
2016-06-10T15:43:05.375Z,26.3
2016-06-10T15:44:05.378Z,26.2
2016-06-10T15:45:05.553Z,26.17
2016-06-10T15:46:05.431Z,26.1
2016-06-10T15:47:05.450Z,25.98
2016-06-10T15:48:05.453Z,25.98
2016-06-10T15:49:05.705Z,25.92
2016-06-10T15:50:05.475Z,25.9
2016-06-10T15:51:05.399Z,25.79
2016-06-10T15:52:05.512Z,25.7
2016-06-10T15:53:05.717Z,25.55
2016-06-10T15:54:05.565Z,25.55
2016-06-10T15:55:05.584Z,25.45
2016-06-10T15:56:05.571Z,25.43
2016-06-10T15:57:06.527Z,25.4
2016-06-10T15:58:05.608Z,25.35
2016-06-10T15:59:05.627Z,25.33
2016-06-10T16:00:05.834Z,25.27
2016-06-10T16:01:05.664Z,25.3
2016-06-10T16:02:05.698Z,25.3
2016-06-10T16:03:05.701Z,25.28
2016-06-10T16:04:05.689Z,25.28
2016-06-10T16:05:05.740Z,25.21
2016-06-10T16:06:05.726Z,25.2
2016-06-10T16:07:05.746Z,25.14
2016-06-10T16:08:05.764Z,25.18
2016-06-10T16:09:05.783Z,25.03
2016-06-10T16:10:06.020Z,25.03
2016-06-10T16:11:05.851Z,25.02
2016-06-10T16:12:05.698Z,25.02
2016-06-10T16:13:06.374Z,24.93
2016-06-10T16:14:05.860Z,24.87
2016-06-10T16:15:05.863Z,24.87
2016-06-10T16:16:05.898Z,24.8
2016-06-10T16:17:05.933Z,24.71
2016-06-10T16:18:06.107Z,24.78
2016-06-10T16:19:05.922Z,24.62
2016-06-10T16:20:06.207Z,24.58
2016-06-10T16:21:05.961Z,24.6
2016-06-10T16:22:05.042Z,24.42
2016-06-10T16:23:06.045Z,24.45
2016-06-10T16:24:06.016Z,24.4
2016-06-10T16:25:06.019Z,24.35
2016-06-10T16:26:06.022Z,24.34
2016-06-10T16:27:06.119Z,24.21
2016-06-10T16:28:06.075Z,24.25
2016-06-10T16:29:06.110Z,24.16
2016-06-10T16:30:06.097Z,24.12
2016-06-10T16:31:06.117Z,24.06
2016-06-10T16:32:06.120Z,23.98
2016-06-10T16:33:06.154Z,23.95
2016-06-10T16:34:06.157Z,23.98
2016-06-10T16:35:06.160Z,23.93
2016-06-10T16:36:06.194Z,23.97
2016-06-10T16:37:06.260Z,23.9
2016-06-10T16:38:06.434Z,23.84
2016-06-10T16:39:06.266Z,23.79
2016-06-10T16:40:06.253Z,23.8
2016-06-10T16:41:06.304Z,23.76
2016-06-10T16:42:06.134Z,23.73
2016-06-10T16:43:06.122Z,23.66
2016-06-10T16:44:06.282Z,23.7
2016-06-10T16:45:06.299Z,23.58
2016-06-10T16:46:06.319Z,23.66
2016-06-10T16:47:06.540Z,23.63
2016-06-10T16:48:06.356Z,23.53
2016-06-10T16:49:06.359Z,23.47
2016-06-10T16:50:06.362Z,23.47
2016-06-10T16:51:06.599Z,23.5
2016-06-10T16:52:06.431Z,23.42
2016-06-10T16:53:06.419Z,23.4
2016-06-10T16:54:06.547Z,23.43
2016-06-10T16:55:06.440Z,23.25
2016-06-10T16:56:06.459Z,23.22
2016-06-10T16:57:06.742Z,23.2
2016-06-10T16:58:06.511Z,23.19
2016-06-10T16:59:06.561Z,23.2
2016-06-10T17:00:06.534Z,23.19
2016-06-10T17:01:06.552Z,23.15
2016-06-10T17:02:06.743Z,23.13
2016-06-10T17:03:06.558Z,23.09
2016-06-10T17:04:06.577Z,23.02
2016-06-10T17:05:06.986Z,22.95
2016-06-10T17:06:06.583Z,22.97
2016-06-10T17:07:06.602Z,22.94
2016-06-10T17:08:06.620Z,22.88
2016-06-10T17:09:06.623Z,22.92
2016-06-10T17:10:06.501Z,22.82
2016-06-10T17:11:06.865Z,22.82
2016-06-10T17:12:06.695Z,22.79
2016-06-10T17:13:07.089Z,22.77
2016-06-10T17:14:06.717Z,22.79
2016-06-10T17:15:06.767Z,22.8
2016-06-10T17:16:06.739Z,22.75
2016-06-10T17:17:20.820Z,22.75
2016-06-10T17:18:07.026Z,22.67
2016-06-10T17:19:06.795Z,22.62
2016-06-10T17:20:06.798Z,22.54
2016-06-10T17:21:06.802Z,22.52
2016-06-10T17:22:06.819Z,22.55
2016-06-10T17:23:07.042Z,22.57
2016-06-10T17:24:06.842Z,22.51
2016-06-10T17:25:06.844Z,22.51
2016-06-10T17:26:06.863Z,22.51
2016-06-10T17:27:07.584Z,22.46
2016-06-10T17:28:07.885Z,22.49
2016-06-10T17:29:07.247Z,22.37
2016-06-10T17:30:07.594Z,22.46
2016-06-10T17:31:06.972Z,22.35
2016-06-10T17:32:21.007Z,22.42
2016-06-10T17:33:06.995Z,22.39
2016-06-10T17:34:06.950Z,22.33
2016-06-10T17:35:07.031Z,22.37
2016-06-10T17:36:07.191Z,22.37
2016-06-10T17:37:07.022Z,22.25
2016-06-10T17:38:07.009Z,22.28
2016-06-10T17:39:07.044Z,22.22
2016-06-10T17:40:09.688Z,22.2
2016-06-10T17:41:07.050Z,22.25
2016-06-10T17:42:07.099Z,22.31
2016-06-10T17:43:07.088Z,22.24
2016-06-10T17:44:07.184Z,22.15
2016-06-10T17:45:06.781Z,22.25
2016-06-10T17:46:08.159Z,22.15
2016-06-10T17:47:07.132Z,22.17
2016-06-10T17:48:07.431Z,22.22
2016-06-10T17:49:07.168Z,22.15
2016-06-10T17:50:07.171Z,22.25
2016-06-10T17:51:09.613Z,22.22
2016-06-10T17:52:08.474Z,22.31
2016-06-10T17:53:08.915Z,22.24
2016-06-10T17:54:07.214Z,22.21
2016-06-10T17:55:07.452Z,22.35
2016-06-10T17:56:12.690Z,22.25
2016-06-10T17:57:08.021Z,22.21
2016-06-10T17:58:08.555Z,22.24
2016-06-10T17:59:07.293Z,22.27
2016-06-10T18:00:07.687Z,22.3
2016-06-10T18:01:08.189Z,22.28
2016-06-10T18:02:07.567Z,22.3
2016-06-10T18:04:07.839Z,22.18
2016-06-10T18:05:07.811Z,22.22
2016-06-10T18:06:07.799Z,22.18
2016-06-10T18:07:08.036Z,22.12
2016-06-10T18:08:07.602Z,22.14
2016-06-10T18:09:07.824Z,22.12
2016-06-10T18:10:07.452Z,22.07
2016-06-10T18:11:08.095Z,22.06
2016-06-10T18:12:07.505Z,22.06
2016-06-10T18:13:08.039Z,22.12
2016-06-10T18:14:07.730Z,22.03
2016-06-10T18:15:07.732Z,22.12
2016-06-10T18:16:07.970Z,22
2016-06-10T18:17:07.567Z,22
2016-06-10T18:18:07.977Z,22.03
2016-06-10T18:19:07.588Z,22.03
2016-06-10T18:20:07.545Z,21.91
2016-06-10T18:22:21.660Z,21.94
2016-06-10T18:23:07.820Z,21.9
2016-06-10T18:24:08.354Z,21.91
2016-06-10T18:25:07.138Z,21.84
2016-06-10T18:26:07.673Z,21.83
2016-06-10T18:27:07.863Z,21.84
2016-06-10T18:28:09.226Z,21.8
2016-06-10T18:30:08.294Z,21.67
2016-06-10T18:31:07.578Z,21.72
2016-06-10T18:32:07.973Z,21.62
2016-06-10T18:33:07.976Z,21.71
2016-06-10T18:34:07.760Z,21.52
2016-06-10T18:36:07.765Z,21.47
2016-06-10T18:37:07.785Z,21.49
2016-06-10T18:38:07.819Z,21.5
2016-06-10T18:39:08.025Z,21.43
2016-06-10T18:40:08.013Z,21.35
2016-06-10T18:41:08.031Z,21.31
2016-06-10T18:42:09.050Z,21.34
2016-06-10T18:49:19.150Z,21.04
2016-06-10T18:49:32.353Z,21.06
2016-06-10T18:50:32.372Z,20.97
2016-06-10T18:51:32.609Z,20.95
2016-06-10T18:52:32.409Z,20.98
2016-06-10T18:53:46.303Z,20.91
2016-06-10T18:54:32.213Z,20.91
2016-06-10T18:55:32.684Z,20.8
2016-06-10T18:56:32.233Z,20.74
2016-06-10T18:57:32.971Z,20.72
2016-06-10T18:58:32.240Z,20.79
2016-06-10T18:59:32.305Z,20.62
2016-06-10T19:00:32.934Z,20.62
2016-06-10T19:01:32.890Z,20.58
2016-06-10T19:02:32.361Z,20.52
2016-06-10T19:03:32.426Z,20.52
2016-06-10T19:04:32.821Z,20.52
2016-06-10T19:05:32.402Z,20.42
2016-06-10T19:06:32.218Z,20.36
2016-06-10T19:07:32.517Z,20.38
2016-06-10T19:08:32.692Z,20.32
2016-06-10T19:09:46.742Z,20.28
2016-06-10T19:10:32.448Z,20.35
2016-06-10T19:11:32.545Z,20.29
2016-06-10T19:12:33.862Z,20.26
2016-06-10T19:13:33.457Z,20.2
2016-06-10T19:14:32.804Z,20.24
2016-06-10T19:15:32.527Z,20.14
2016-06-10T19:16:32.514Z,20.1
2016-06-10T19:17:32.595Z,20.08
2016-06-10T19:18:32.520Z,20.1
2016-06-10T19:19:32.554Z,20.03
2016-06-10T19:20:32.526Z,19.99
2016-06-10T19:21:32.607Z,19.91
2016-06-10T19:22:32.579Z,19.98
2016-06-10T19:23:32.535Z,19.96
2016-06-10T19:24:32.819Z,19.88
2016-06-10T19:25:32.558Z,19.78
2016-06-10T19:26:32.608Z,19.86
2016-06-10T19:27:32.578Z,19.88
2016-06-10T19:28:33.488Z,19.83
2016-06-10T19:29:32.648Z,19.77
2016-06-10T19:30:32.635Z,19.76
2016-06-10T19:31:32.701Z,19.78
2016-06-10T19:32:33.110Z,19.63
2016-06-10T19:33:32.722Z,19.63
2016-06-10T19:34:32.694Z,19.61
2016-06-10T19:35:32.650Z,19.61
2016-06-10T19:36:32.731Z,19.62
2016-06-10T19:37:32.781Z,19.62
2016-06-10T19:38:32.770Z,19.48
2016-06-10T19:39:33.287Z,19.47
2016-06-10T19:40:32.760Z,19.43
2016-06-10T19:41:32.856Z,19.44
2016-06-10T19:42:32.640Z,19.44
2016-06-10T19:43:33.082Z,19.31
2016-06-10T19:44:32.866Z,19.32
2016-06-10T19:45:33.055Z,19.28
2016-06-10T19:46:32.794Z,19.25
2016-06-10T19:47:32.812Z,19.18
2016-06-10T19:48:32.847Z,19.1
2016-06-10T19:49:32.834Z,19.11
2016-06-10T19:50:32.899Z,19.16
2016-06-10T19:51:33.090Z,19
2016-06-10T19:52:33.156Z,18.94
2016-06-10T19:53:33.049Z,18.95
2016-06-10T19:54:32.866Z,19.02
2016-06-10T19:55:32.915Z,18.91
2016-06-10T19:56:32.902Z,18.94
2016-06-10T19:57:33.343Z,18.91
2016-06-10T19:58:32.970Z,18.87
2016-06-10T19:59:32.943Z,18.95
2016-06-10T20:00:32.945Z,18.84
2016-06-10T20:01:32.949Z,18.87
2016-06-10T20:02:32.984Z,18.84
2016-06-10T20:03:33.252Z,18.78
2016-06-10T20:04:33.209Z,18.81
2016-06-10T20:05:32.992Z,18.8
2016-06-10T20:06:33.370Z,18.75
2016-06-10T20:07:32.890Z,18.75
2016-06-10T20:08:47.298Z,18.7
2016-06-10T20:09:33.240Z,18.73
2016-06-10T20:10:33.039Z,18.69
2016-06-10T20:11:33.246Z,18.67
2016-06-10T20:12:34.171Z,18.67
2016-06-10T20:13:33.361Z,18.67
2016-06-10T20:14:33.067Z,18.7
2016-06-10T20:15:33.164Z,18.62
2016-06-10T20:16:33.417Z,18.63
2016-06-10T20:17:33.140Z,18.62
2016-06-10T20:18:33.407Z,18.6
2016-06-10T20:19:33.208Z,18.57
2016-06-10T20:20:33.241Z,18.54
2016-06-10T20:21:33.152Z,18.51
2016-06-10T20:22:33.436Z,18.44
2016-06-10T20:23:33.360Z,18.42
2016-06-10T20:24:47.239Z,18.36
2016-06-10T20:25:33.350Z,18.35
2016-06-10T20:26:33.432Z,18.33
2016-06-10T20:27:33.670Z,18.36
2016-06-10T20:28:34.782Z,18.32
2016-06-10T20:29:47.519Z,18.27
2016-06-10T20:30:33.429Z,18.2
2016-06-10T20:31:33.197Z,18.21
2016-06-10T20:32:33.451Z,18.29
2016-06-10T20:33:33.422Z,18.27
2016-06-10T20:34:33.473Z,18.26
2016-06-10T20:35:33.366Z,18.18
2016-06-10T20:36:33.275Z,18.14
2016-06-10T20:37:33.278Z,18.21
2016-06-10T20:39:33.316Z,18.25
2016-06-10T20:40:33.382Z,18.17
2016-06-10T20:41:33.321Z,18.12
2016-06-10T20:42:33.559Z,18.2
2016-06-10T20:43:34.531Z,18.21
2016-06-10T20:44:33.394Z,18.18
2016-06-10T20:45:33.397Z,18.2
2016-06-10T20:46:33.415Z,18.2
2016-06-10T20:47:33.543Z,18.2
2016-06-10T20:48:33.532Z,18.21
2016-06-10T20:49:33.549Z,18.14
2016-06-10T20:50:33.406Z,18.12
2016-06-10T20:51:33.590Z,18.05
2016-06-10T20:52:33.633Z,18.14
2016-06-10T20:53:33.692Z,18.14
2016-06-10T20:54:33.875Z,18.14
2016-06-10T20:55:33.652Z,18.12
2016-06-10T20:56:33.810Z,18.08
2016-06-10T20:57:33.796Z,18.11
2016-06-10T20:58:33.579Z,18.07
2016-06-10T20:59:33.752Z,18.07
2016-06-10T21:00:34.218Z,18.07
2016-06-10T21:01:33.771Z,18.02
2016-06-10T21:02:33.873Z,18.03
2016-06-10T21:03:33.867Z,17.97
2016-06-10T21:04:33.999Z,17.95
2016-06-10T21:05:34.271Z,17.95
2016-06-10T21:06:33.822Z,17.96
2016-06-10T21:07:33.391Z,17.9
2016-06-10T21:08:33.802Z,17.89
2016-06-10T21:09:34.119Z,17.82
2016-06-10T21:10:33.826Z,17.87
2016-06-10T21:11:33.454Z,17.79
2016-06-10T21:12:33.975Z,17.78
2016-06-10T21:13:34.088Z,17.78
2016-06-10T21:14:33.904Z,17.82
2016-06-10T21:15:34.032Z,17.86
2016-06-10T21:16:33.473Z,17.74
2016-06-10T21:17:33.492Z,17.82
2016-06-10T21:18:34.215Z,17.82
2016-06-10T21:19:33.953Z,17.79
2016-06-10T21:20:33.941Z,17.77
2016-06-10T21:21:33.959Z,17.79
2016-06-10T21:22:33.993Z,17.77
2016-06-10T21:23:34.028Z,17.71
2016-06-10T21:24:34.000Z,17.66
2016-06-10T21:25:34.409Z,17.74
2016-06-10T21:26:34.052Z,17.72
2016-06-10T21:27:34.227Z,17.71
2016-06-10T21:28:34.371Z,17.68
2016-06-10T21:29:34.031Z,17.62
2016-06-10T21:30:34.049Z,17.58
2016-06-10T21:31:34.068Z,17.64
2016-06-10T21:32:34.070Z,17.62
2016-06-10T21:33:33.918Z,17.63
2016-06-10T21:34:34.093Z,17.58
2016-06-10T21:35:34.455Z,17.52
2016-06-10T21:36:34.255Z,17.55
2016-06-10T21:37:34.133Z,17.4
2016-06-10T21:38:34.152Z,17.52
2016-06-10T21:39:34.343Z,17.48
2016-06-10T21:40:34.220Z,17.41
2016-06-10T21:41:34.162Z,17.43
2016-06-10T21:42:34.539Z,17.46
2016-06-10T21:43:36.887Z,17.41
2016-06-10T21:44:34.607Z,17.41
2016-06-10T21:45:34.705Z,17.37
2016-06-10T21:46:34.239Z,17.34
2016-06-10T21:47:34.210Z,17.37
2016-06-10T21:48:35.292Z,17.3
2016-06-10T21:49:35.217Z,17.31
2016-06-10T21:50:34.454Z,17.3
2016-06-10T21:51:34.442Z,17.21
2016-06-10T21:52:34.289Z,17.28
2016-06-10T21:53:34.245Z,17.22
2016-06-10T21:54:34.404Z,17.23
2016-06-10T21:55:34.283Z,17.23
2016-06-10T21:56:34.286Z,17.19
2016-06-10T21:57:38.319Z,17.18
2016-06-10T21:58:34.510Z,17.21
2016-06-10T21:59:34.310Z,17.11
2016-06-10T22:00:34.314Z,17.08
2016-06-10T22:01:34.317Z,17.04
2016-06-10T22:02:34.382Z,17.04
2016-06-10T22:03:34.385Z,16.94
2016-06-10T22:04:34.576Z,16.94
2016-06-10T22:05:34.580Z,17.01
2016-06-10T22:06:48.457Z,16.91
2016-06-10T22:07:34.820Z,16.89
2016-06-10T22:08:34.431Z,16.89
2016-06-10T22:09:48.467Z,16.88
2016-06-10T22:10:34.437Z,16.86
2016-06-10T22:11:33.941Z,16.91
2016-06-10T22:12:34.646Z,16.91
2016-06-10T22:13:34.635Z,16.76
2016-06-10T22:14:34.435Z,16.76
2016-06-10T22:15:34.656Z,16.73
2016-06-10T22:16:34.441Z,16.75
2016-06-10T22:17:34.678Z,16.76
2016-06-10T22:18:34.712Z,16.73